createdAt,value
2023-02-24T00:00:47.286Z,11.00
2023-02-24T00:01:46.002Z,10.10
2023-02-24T00:02:46.059Z,10.90
2023-02-24T00:03:46.063Z,10.80
2023-02-24T00:04:45.953Z,10.70
2023-02-24T00:05:45.971Z,10.20
2023-02-24T00:06:45.939Z,11.00
2023-02-24T00:07:46.014Z,9.90
2023-02-24T00:08:45.895Z,10.10
2023-02-24T00:09:45.908Z,10.50
2023-02-24T00:10:45.969Z,10.10
2023-02-24T00:11:46.016Z,10.40
2023-02-24T00:12:45.846Z,11.00
2023-02-24T00:13:45.851Z,10.00
2023-02-24T00:14:45.833Z,10.00
2023-02-24T00:15:45.830Z,9.40
2023-02-24T00:16:45.886Z,10.60
2023-02-24T00:17:45.892Z,9.10
2023-02-24T00:18:45.806Z,10.50
2023-02-24T00:19:45.775Z,10.40
2023-02-24T00:20:45.754Z,10.70
2023-02-24T00:21:45.787Z,10.20
2023-02-24T00:22:45.732Z,9.80
2023-02-24T00:23:45.749Z,9.10
2023-02-24T00:24:45.718Z,9.00
2023-02-24T00:25:45.697Z,9.00
2023-02-24T00:26:45.719Z,9.30
2023-02-24T00:27:45.676Z,9.90
2023-02-24T00:28:45.674Z,9.40
2023-02-24T00:29:45.677Z,9.30
2023-02-24T00:30:45.664Z,8.70
2023-02-24T00:31:45.829Z,8.90
2023-02-24T00:32:45.748Z,9.40
2023-02-24T00:33:45.693Z,9.20
2023-02-24T00:34:45.618Z,8.10
2023-02-24T00:35:45.662Z,8.30
2023-02-24T00:36:45.603Z,8.20
2023-02-24T00:37:45.565Z,8.10
2023-02-24T00:38:45.554Z,8.30
2023-02-24T00:39:45.600Z,8.30
2023-02-24T00:40:45.531Z,8.40
2023-02-24T00:41:45.561Z,8.70
2023-02-24T00:42:45.506Z,8.30
2023-02-24T00:43:45.534Z,8.30
2023-02-24T00:44:45.514Z,8.60
2023-02-24T00:45:45.491Z,8.10
2023-02-24T00:46:45.481Z,8.30
2023-02-24T00:47:45.486Z,8.00
2023-02-24T00:48:45.449Z,8.60
2023-02-24T00:49:45.441Z,8.90
2023-02-24T00:50:45.419Z,7.80
2023-02-24T00:51:45.420Z,7.80
2023-02-24T00:52:45.435Z,8.20
2023-02-24T00:53:45.388Z,7.50
2023-02-24T00:54:45.371Z,7.40
2023-02-24T00:55:45.365Z,8.10
2023-02-24T00:56:45.422Z,7.50
2023-02-24T00:57:45.373Z,8.10
2023-02-24T00:58:45.390Z,7.40
2023-02-24T00:59:45.325Z,6.90
2023-02-24T01:00:45.321Z,7.30
2023-02-24T01:01:45.424Z,7.60
2023-02-24T01:02:45.292Z,7.90
2023-02-24T01:03:45.339Z,7.70
2023-02-24T01:04:45.311Z,7.80
2023-02-24T01:05:45.264Z,7.30
2023-02-24T01:06:45.331Z,6.90
2023-02-24T01:07:45.232Z,7.20
2023-02-24T01:08:45.281Z,7.30
2023-02-24T01:09:45.236Z,6.90
2023-02-24T01:10:45.219Z,7.00
2023-02-24T01:11:45.276Z,6.80
2023-02-24T01:12:45.195Z,7.30
2023-02-24T01:13:45.161Z,6.30
2023-02-24T01:14:45.162Z,6.70
2023-02-24T01:15:45.182Z,6.50
2023-02-24T01:16:45.176Z,6.80
2023-02-24T01:17:45.128Z,6.50
2023-02-24T01:18:45.106Z,6.20
2023-02-24T01:19:45.085Z,6.50
2023-02-24T01:20:45.082Z,6.50
2023-02-24T01:21:45.096Z,6.90
2023-02-24T01:22:45.793Z,6.90
2023-02-24T01:23:45.033Z,6.70
2023-02-24T01:24:45.046Z,7.10
2023-02-24T01:25:45.016Z,6.40
2023-02-24T01:26:45.024Z,6.60
2023-02-24T01:27:45.040Z,6.40
2023-02-24T01:28:44.993Z,6.70
2023-02-24T01:29:44.986Z,5.90
2023-02-24T01:30:44.994Z,6.10
2023-02-24T01:31:46.777Z,6.90
2023-02-24T01:32:45.078Z,6.40
2023-02-24T01:33:44.978Z,6.20
2023-02-24T01:34:44.947Z,6.80
2023-02-24T01:35:44.905Z,6.50
2023-02-24T01:36:44.926Z,5.80
2023-02-24T01:37:44.893Z,5.80
2023-02-24T01:38:44.870Z,5.30
2023-02-24T01:39:44.917Z,5.60
2023-02-24T01:40:44.847Z,5.50
2023-02-24T01:41:44.842Z,5.20
2023-02-24T01:42:44.836Z,5.50
2023-02-24T01:43:44.817Z,5.50
2023-02-24T01:44:44.799Z,6.30
2023-02-24T01:45:44.842Z,5.90
2023-02-24T01:46:44.864Z,6.20
2023-02-24T01:47:44.777Z,6.10
2023-02-24T01:48:44.761Z,5.70
2023-02-24T01:49:44.768Z,5.90
2023-02-24T01:50:44.752Z,5.70
2023-02-24T01:51:44.741Z,5.40
2023-02-24T01:52:44.722Z,5.90
2023-02-24T01:53:44.715Z,5.70
2023-02-24T01:54:44.752Z,5.80
2023-02-24T01:55:44.683Z,5.90
2023-02-24T01:56:44.662Z,6.00
2023-02-24T01:57:44.696Z,5.80
2023-02-24T01:58:44.654Z,6.00
2023-02-24T01:59:44.633Z,6.10
2023-02-24T02:00:44.614Z,5.80
2023-02-24T02:01:44.781Z,6.10
2023-02-24T02:02:44.769Z,6.10
2023-02-24T02:03:44.613Z,5.40
2023-02-24T02:04:44.575Z,6.50
2023-02-24T02:05:44.565Z,6.00
2023-02-24T02:06:44.634Z,5.60
2023-02-24T02:07:44.544Z,5.80
2023-02-24T02:08:44.535Z,5.80
2023-02-24T02:09:44.536Z,4.90
2023-02-24T02:10:44.507Z,6.40
2023-02-24T02:11:44.496Z,5.60
2023-02-24T02:12:44.912Z,5.40
2023-02-24T02:13:44.590Z,5.00
2023-02-24T02:14:44.477Z,4.80
2023-02-24T02:15:44.456Z,5.50
2023-02-24T02:16:44.457Z,5.10
2023-02-24T02:17:44.427Z,5.30
2023-02-24T02:18:44.462Z,4.80
2023-02-24T02:19:44.502Z,5.20
2023-02-24T02:20:44.407Z,5.40
2023-02-24T02:21:44.402Z,5.50
2023-02-24T02:22:44.380Z,6.20
2023-02-24T02:23:44.364Z,5.20
2023-02-24T02:24:44.358Z,5.00
2023-02-24T02:25:44.347Z,5.00
2023-02-24T02:26:44.343Z,5.40
2023-02-24T02:27:44.323Z,6.00
2023-02-24T02:28:44.309Z,5.50
2023-02-24T02:29:44.301Z,5.50
2023-02-24T02:30:44.302Z,5.70
2023-02-24T02:31:44.517Z,5.60
2023-02-24T02:32:44.369Z,5.10
2023-02-24T02:33:44.259Z,5.60
2023-02-24T02:34:44.229Z,5.80
2023-02-24T02:35:44.232Z,5.70
2023-02-24T02:36:44.231Z,5.70
2023-02-24T02:37:44.203Z,5.70
2023-02-24T02:38:44.198Z,5.70
2023-02-24T02:39:44.184Z,6.10
2023-02-24T02:40:44.193Z,5.90
2023-02-24T02:41:44.165Z,5.70
2023-02-24T02:42:44.151Z,5.00
2023-02-24T02:43:44.151Z,5.30
2023-02-24T02:44:44.199Z,5.90
2023-02-24T02:45:44.123Z,5.70
2023-02-24T02:46:44.144Z,5.50
2023-02-24T02:47:44.094Z,5.80
2023-02-24T02:48:44.106Z,5.20
2023-02-24T02:49:44.118Z,5.50
2023-02-24T02:50:44.097Z,5.40
2023-02-24T02:51:44.072Z,5.40
2023-02-24T02:52:44.036Z,5.60
2023-02-24T02:53:44.010Z,5.30
2023-02-24T02:54:44.006Z,5.20
2023-02-24T02:55:44.016Z,5.60
2023-02-24T02:56:43.976Z,5.70
2023-02-24T02:57:43.980Z,5.30
2023-02-24T02:58:43.957Z,5.60
2023-02-24T02:59:43.941Z,6.00
2023-02-24T03:00:43.939Z,5.80
2023-02-24T03:01:43.940Z,6.20
2023-02-24T03:02:43.915Z,5.40
2023-02-24T03:03:43.902Z,5.60
2023-02-24T03:04:43.922Z,5.70
2023-02-24T03:05:43.896Z,5.50
2023-02-24T03:06:43.873Z,5.60
2023-02-24T03:07:43.891Z,6.00
2023-02-24T03:08:43.926Z,5.90
2023-02-24T03:09:43.914Z,5.70
2023-02-24T03:10:43.856Z,5.40
2023-02-24T03:11:43.816Z,5.20
2023-02-24T03:12:43.867Z,5.50
2023-02-24T03:13:43.794Z,6.00
2023-02-24T03:14:43.825Z,5.80
2023-02-24T03:15:43.757Z,6.00
2023-02-24T03:16:43.847Z,5.80
2023-02-24T03:17:43.767Z,5.70
2023-02-24T03:18:43.820Z,5.10
2023-02-24T03:19:43.725Z,5.60
2023-02-24T03:20:43.720Z,5.50
2023-02-24T03:21:43.920Z,5.90
2023-02-24T03:22:43.678Z,5.70
2023-02-24T03:23:43.701Z,5.80
2023-02-24T03:24:43.775Z,6.00
2023-02-24T03:25:43.651Z,6.00
2023-02-24T03:26:43.668Z,6.00
2023-02-24T03:27:43.621Z,7.00
2023-02-24T03:28:43.625Z,7.00
2023-02-24T03:29:43.685Z,6.00
2023-02-24T03:30:43.645Z,6.30
2023-02-24T03:31:43.742Z,6.80
2023-02-24T03:32:43.811Z,6.90
2023-02-24T03:33:43.589Z,7.40
2023-02-24T03:34:43.586Z,7.50
2023-02-24T03:35:43.555Z,7.90
2023-02-24T03:36:43.572Z,7.80
2023-02-24T03:37:43.515Z,7.30
2023-02-24T03:38:43.524Z,7.70
2023-02-24T03:39:43.572Z,7.70
2023-02-24T03:40:43.559Z,8.20
2023-02-24T03:41:43.490Z,8.50
2023-02-24T03:42:43.452Z,7.80
2023-02-24T03:43:43.512Z,8.30
2023-02-24T03:44:43.433Z,8.30
2023-02-24T03:45:43.444Z,8.20
2023-02-24T03:46:43.480Z,9.00
2023-02-24T03:47:43.408Z,8.00
2023-02-24T03:48:43.402Z,7.50
2023-02-24T03:49:43.375Z,7.90
2023-02-24T03:50:43.365Z,7.90
2023-02-24T03:51:43.364Z,7.70
2023-02-24T03:52:43.406Z,8.30
2023-02-24T03:53:43.347Z,8.60
2023-02-24T03:54:43.349Z,8.50
2023-02-24T03:55:43.304Z,8.50
2023-02-24T03:56:43.298Z,8.40
2023-02-24T03:57:43.304Z,8.00
2023-02-24T03:58:43.288Z,8.70
2023-02-24T03:59:43.256Z,9.30
2023-02-24T04:00:43.244Z,9.30
2023-02-24T04:01:43.235Z,8.20
2023-02-24T04:02:43.249Z,7.70
2023-02-24T04:03:43.207Z,7.90
2023-02-24T04:04:43.245Z,8.60
2023-02-24T04:05:43.185Z,8.10
2023-02-24T04:06:43.176Z,8.20
2023-02-24T04:07:43.155Z,7.90
2023-02-24T04:08:43.165Z,8.10
2023-02-24T04:09:43.162Z,7.90
2023-02-24T04:10:43.126Z,7.70
2023-02-24T04:11:43.106Z,8.00
2023-02-24T04:12:43.202Z,7.90
2023-02-24T04:13:43.098Z,8.60
2023-02-24T04:14:43.085Z,8.10
2023-02-24T04:15:43.132Z,8.30
2023-02-24T04:16:43.080Z,8.30
2023-02-24T04:17:43.052Z,7.80
2023-02-24T04:18:43.028Z,9.10
2023-02-24T04:19:43.016Z,8.40
2023-02-24T04:20:43.018Z,7.80
2023-02-24T04:21:43.040Z,7.60
2023-02-24T04:22:42.991Z,7.90
2023-02-24T04:23:42.980Z,7.60
2023-02-24T04:24:42.993Z,7.90
2023-02-24T04:25:43.026Z,8.10
2023-02-24T04:26:42.950Z,8.60
2023-02-24T04:27:42.959Z,7.90
2023-02-24T04:28:42.932Z,7.20
2023-02-24T04:29:42.900Z,7.90
2023-02-24T04:30:42.990Z,7.90
2023-02-24T04:31:43.128Z,7.70
2023-02-24T04:32:43.021Z,8.00
2023-02-24T04:33:42.870Z,8.10
2023-02-24T04:34:42.875Z,8.50
2023-02-24T04:35:42.842Z,8.10
2023-02-24T04:36:42.832Z,8.30
2023-02-24T04:37:42.866Z,8.50
2023-02-24T04:38:42.841Z,8.70
2023-02-24T04:39:42.815Z,8.50
2023-02-24T04:40:42.945Z,8.70
2023-02-24T04:41:42.770Z,8.00
2023-02-24T04:42:42.772Z,8.40
2023-02-24T04:43:42.752Z,8.20
2023-02-24T04:44:42.801Z,8.50
2023-02-24T04:45:42.720Z,7.90
2023-02-24T04:46:42.883Z,8.70
2023-02-24T04:47:42.741Z,8.80
2023-02-24T04:48:42.705Z,7.80
2023-02-24T04:49:42.742Z,8.20
2023-02-24T04:50:42.671Z,8.90
2023-02-24T04:51:42.694Z,8.40
2023-02-24T04:52:42.683Z,9.30
2023-02-24T04:53:42.643Z,9.10
2023-02-24T04:54:42.639Z,9.30
2023-02-24T04:55:42.646Z,9.10
2023-02-24T04:56:42.612Z,9.20
2023-02-24T04:57:42.594Z,8.60
2023-02-24T04:58:42.628Z,9.50
2023-02-24T04:59:42.587Z,9.50
2023-02-24T05:00:42.607Z,9.80
2023-02-24T05:01:42.598Z,9.30
2023-02-24T05:02:42.564Z,9.60
2023-02-24T05:03:42.764Z,10.00
2023-02-24T05:04:42.571Z,9.30
2023-02-24T05:05:42.512Z,8.80
2023-02-24T05:06:42.503Z,8.90
2023-02-24T05:07:42.525Z,8.90
2023-02-24T05:08:42.479Z,9.80
2023-02-24T05:09:42.480Z,8.90
2023-02-24T05:10:42.459Z,10.20
2023-02-24T05:11:42.452Z,9.20
2023-02-24T05:12:42.418Z,10.40
2023-02-24T05:13:42.437Z,9.50
2023-02-24T05:14:42.399Z,9.70
2023-02-24T05:15:42.435Z,9.60
2023-02-24T05:16:42.397Z,9.10
2023-02-24T05:17:42.368Z,9.20
2023-02-24T05:18:42.369Z,10.10
2023-02-24T05:19:42.392Z,9.30
2023-02-24T05:20:42.334Z,9.10
2023-02-24T05:21:42.370Z,9.90
2023-02-24T05:22:42.309Z,9.60
2023-02-24T05:23:42.319Z,9.20
2023-02-24T05:24:42.299Z,9.10
2023-02-24T05:25:42.299Z,9.30
2023-02-24T05:26:42.261Z,10.30
2023-02-24T05:27:42.282Z,9.90
2023-02-24T05:28:42.249Z,9.60
2023-02-24T05:29:42.269Z,9.20
2023-02-24T05:30:42.302Z,9.70
2023-02-24T05:31:42.259Z,9.80
2023-02-24T05:32:42.248Z,8.90
2023-02-24T05:33:42.194Z,9.70
2023-02-24T05:34:42.183Z,9.90
2023-02-24T05:35:42.161Z,9.30
2023-02-24T05:36:42.171Z,9.60
2023-02-24T05:37:42.156Z,10.60
2023-02-24T05:38:42.119Z,10.30
2023-02-24T05:39:42.130Z,10.40
2023-02-24T05:40:42.120Z,9.90
2023-02-24T05:41:42.393Z,10.10
2023-02-24T05:42:42.101Z,10.10
2023-02-24T05:43:42.100Z,10.20
2023-02-24T05:44:42.089Z,10.40
2023-02-24T05:45:42.040Z,10.00
2023-02-24T05:46:42.116Z,9.90
2023-02-24T05:47:42.024Z,9.70
2023-02-24T05:48:42.022Z,10.20
2023-02-24T05:49:42.016Z,10.30
2023-02-24T05:50:42.003Z,10.00
2023-02-24T05:51:41.978Z,10.30
2023-02-24T05:52:41.975Z,9.80
2023-02-24T05:53:41.960Z,10.00
2023-02-24T05:54:41.992Z,10.30
2023-02-24T05:55:41.929Z,10.80
2023-02-24T05:56:41.911Z,9.60
2023-02-24T05:57:42.051Z,10.20
2023-02-24T05:58:41.896Z,9.90
2023-02-24T05:59:41.928Z,10.30
2023-02-24T06:00:41.870Z,10.70
2023-02-24T06:01:41.949Z,10.30
2023-02-24T06:02:41.895Z,11.20
2023-02-24T06:03:41.830Z,10.20
2023-02-24T06:04:41.820Z,10.30
2023-02-24T06:05:42.040Z,11.40
2023-02-24T06:06:41.820Z,10.30
2023-02-24T06:07:41.812Z,11.60
2023-02-24T06:08:41.781Z,10.50
2023-02-24T06:09:41.789Z,10.60
2023-02-24T06:10:41.788Z,10.70
2023-02-24T06:11:41.820Z,10.50
2023-02-24T06:12:41.738Z,10.20
2023-02-24T06:13:41.738Z,11.40
2023-02-24T06:14:41.713Z,11.20
2023-02-24T06:15:41.757Z,11.20
2023-02-24T06:16:41.719Z,10.50
2023-02-24T06:17:41.684Z,10.20
2023-02-24T06:18:41.662Z,10.70
2023-02-24T06:19:41.675Z,10.70
2023-02-24T06:20:41.643Z,11.50
2023-02-24T06:21:41.656Z,11.60
2023-02-24T06:22:41.653Z,11.20
2023-02-24T06:23:41.609Z,11.30
2023-02-24T06:24:41.634Z,10.50
2023-02-24T06:25:41.585Z,11.60
2023-02-24T06:26:41.586Z,11.90
2023-02-24T06:27:41.565Z,11.80
2023-02-24T06:28:41.574Z,12.10
2023-02-24T06:29:41.549Z,12.10
2023-02-24T06:30:41.542Z,13.00
2023-02-24T06:31:41.668Z,12.90
2023-02-24T06:32:41.821Z,12.30
2023-02-24T06:33:41.564Z,12.70
2023-02-24T06:34:41.486Z,13.60
2023-02-24T06:35:41.469Z,14.70
2023-02-24T06:36:41.459Z,12.30
2023-02-24T06:37:41.453Z,12.10
2023-02-24T06:38:41.453Z,13.50
2023-02-24T06:39:41.461Z,13.20
2023-02-24T06:40:41.424Z,12.60
2023-02-24T06:41:41.406Z,12.90
2023-02-24T06:42:41.662Z,13.50
2023-02-24T06:43:41.385Z,14.00
2023-02-24T06:44:41.437Z,14.10
2023-02-24T06:45:41.549Z,14.60
2023-02-24T06:46:41.379Z,14.20
2023-02-24T06:47:41.340Z,14.10
2023-02-24T06:48:41.345Z,14.60
2023-02-24T06:49:41.310Z,14.20
2023-02-24T06:50:42.200Z,14.90
2023-02-24T06:51:41.423Z,14.80
2023-02-24T06:52:41.284Z,14.70
2023-02-24T06:53:41.272Z,14.90
2023-02-24T06:54:41.263Z,13.90
2023-02-24T06:55:41.254Z,13.80
2023-02-24T06:56:41.257Z,14.40
2023-02-24T06:57:41.230Z,15.10
2023-02-24T06:58:41.295Z,13.80
2023-02-24T06:59:41.231Z,14.50
2023-02-24T07:00:41.242Z,14.00
2023-02-24T07:01:41.283Z,14.50
2023-02-24T07:02:41.187Z,14.00
2023-02-24T07:03:41.143Z,14.70
2023-02-24T07:04:41.241Z,14.20
2023-02-24T07:05:41.138Z,13.70
2023-02-24T07:06:41.121Z,12.90
2023-02-24T07:07:41.145Z,13.30
2023-02-24T07:08:41.105Z,13.80
2023-02-24T07:09:41.090Z,13.70
2023-02-24T07:10:41.075Z,14.00
2023-02-24T07:11:41.053Z,13.60
2023-02-24T07:12:41.095Z,13.20
2023-02-24T07:13:41.066Z,13.80
2023-02-24T07:14:41.047Z,15.10
2023-02-24T07:15:41.436Z,13.90
2023-02-24T07:16:41.070Z,14.50
2023-02-24T07:17:40.998Z,13.50
2023-02-24T07:18:41.022Z,13.40
2023-02-24T07:19:41.006Z,13.70
2023-02-24T07:20:41.030Z,14.30
2023-02-24T07:21:40.946Z,13.50
2023-02-24T07:22:40.966Z,13.70
2023-02-24T07:23:41.030Z,13.80
2023-02-24T07:24:40.903Z,14.00
2023-02-24T07:25:40.930Z,13.50
2023-02-24T07:26:40.887Z,13.60
2023-02-24T07:27:40.900Z,14.00
2023-02-24T07:28:40.879Z,13.10
2023-02-24T07:29:40.848Z,13.10
2023-02-24T07:30:41.025Z,13.00
2023-02-24T07:31:40.920Z,13.90
2023-02-24T07:32:40.846Z,13.20
2023-02-24T07:33:40.809Z,12.80
2023-02-24T07:34:41.009Z,13.60
2023-02-24T07:35:41.583Z,13.00
2023-02-24T07:36:40.861Z,12.80
2023-02-24T07:37:40.778Z,12.30
2023-02-24T07:38:40.768Z,13.60
2023-02-24T07:39:40.754Z,12.60
2023-02-24T07:40:40.768Z,12.70
2023-02-24T07:41:40.705Z,13.20
2023-02-24T07:42:40.724Z,12.50
2023-02-24T07:43:40.685Z,12.60
2023-02-24T07:44:40.743Z,13.00
2023-02-24T07:45:40.744Z,14.10
2023-02-24T07:46:40.680Z,13.20
2023-02-24T07:47:40.678Z,13.30
2023-02-24T07:48:40.831Z,12.50
2023-02-24T07:49:40.619Z,12.50
2023-02-24T07:50:40.618Z,12.60
2023-02-24T07:51:40.597Z,12.70
2023-02-24T07:52:40.707Z,13.00
2023-02-24T07:53:40.588Z,14.10
2023-02-24T07:54:40.593Z,12.30
2023-02-24T07:55:40.618Z,12.70
2023-02-24T07:56:40.526Z,12.70
2023-02-24T07:57:40.533Z,13.10
2023-02-24T07:58:40.525Z,12.90
2023-02-24T07:59:40.515Z,12.70
2023-02-24T08:00:40.496Z,12.50
2023-02-24T08:01:40.485Z,12.90
2023-02-24T08:02:40.671Z,12.50
2023-02-24T08:03:40.466Z,13.10
2023-02-24T08:04:40.486Z,12.70
2023-02-24T08:05:40.468Z,13.00
2023-02-24T08:06:40.434Z,12.90
2023-02-24T08:07:40.416Z,13.20
2023-02-24T08:08:40.385Z,12.90
2023-02-24T08:09:40.429Z,11.90
2023-02-24T08:10:40.411Z,13.40
2023-02-24T08:11:40.360Z,11.60
2023-02-24T08:12:40.348Z,11.90
2023-02-24T08:13:40.338Z,12.50
2023-02-24T08:14:40.318Z,12.40
2023-02-24T08:15:40.430Z,10.90
2023-02-24T08:16:40.357Z,11.40
2023-02-24T08:17:40.296Z,11.40
2023-02-24T08:18:40.278Z,11.50
2023-02-24T08:19:40.275Z,11.40
2023-02-24T08:20:40.274Z,11.40
2023-02-24T08:21:40.326Z,11.40
2023-02-24T08:22:40.336Z,11.30
2023-02-24T08:23:40.220Z,10.80
2023-02-24T08:24:40.214Z,10.80
2023-02-24T08:25:40.568Z,11.60
2023-02-24T08:26:40.197Z,11.40
2023-02-24T08:27:40.294Z,11.70
2023-02-24T08:28:40.170Z,10.20
2023-02-24T08:29:40.212Z,11.50
2023-02-24T08:30:40.687Z,11.10
2023-02-24T08:31:40.273Z,11.00
2023-02-24T08:32:40.212Z,11.10
2023-02-24T08:33:40.147Z,10.90
2023-02-24T08:34:40.144Z,10.70
2023-02-24T08:35:40.184Z,10.80
2023-02-24T08:36:40.060Z,10.00
2023-02-24T08:37:40.054Z,10.00
2023-02-24T08:38:40.325Z,9.60
2023-02-24T08:39:40.052Z,10.80
2023-02-24T08:40:40.075Z,8.80
2023-02-24T08:41:40.117Z,9.20
2023-02-24T08:42:39.993Z,10.00
2023-02-24T08:43:40.035Z,9.10
2023-02-24T08:44:42.210Z,9.50
2023-02-24T08:45:39.992Z,8.60
2023-02-24T08:46:40.021Z,9.50
2023-02-24T08:47:39.948Z,9.00
2023-02-24T08:48:39.926Z,9.10
2023-02-24T08:49:39.919Z,9.50
2023-02-24T08:50:39.953Z,8.70
2023-02-24T08:51:39.957Z,9.00
2023-02-24T08:52:39.898Z,8.90
2023-02-24T08:53:39.888Z,8.90
2023-02-24T08:54:39.886Z,8.30
2023-02-24T08:55:39.855Z,8.50
2023-02-24T08:56:39.870Z,8.00
2023-02-24T08:57:39.865Z,8.60
2023-02-24T08:58:39.830Z,8.50
2023-02-24T08:59:39.899Z,7.70
2023-02-24T09:00:39.922Z,8.00
2023-02-24T09:01:39.847Z,8.30
2023-02-24T09:02:39.763Z,7.50
2023-02-24T09:03:39.767Z,7.70
2023-02-24T09:04:39.799Z,8.00
2023-02-24T09:05:39.787Z,7.40
2023-02-24T09:06:39.717Z,7.20
2023-02-24T09:07:39.716Z,6.70
2023-02-24T09:08:39.742Z,6.90
2023-02-24T09:09:39.693Z,7.30
2023-02-24T09:10:39.959Z,7.80
2023-02-24T09:11:39.673Z,7.00
2023-02-24T09:12:39.691Z,8.20
2023-02-24T09:13:39.647Z,7.30
2023-02-24T09:14:39.688Z,7.00
2023-02-24T09:15:39.639Z,7.20
2023-02-24T09:16:39.643Z,6.80
2023-02-24T09:17:39.662Z,7.50
2023-02-24T09:18:39.607Z,6.80
2023-02-24T09:19:39.696Z,6.40
2023-02-24T09:20:39.602Z,7.20
2023-02-24T09:21:39.564Z,7.30
2023-02-24T09:22:39.545Z,7.70
2023-02-24T09:23:39.542Z,7.20
2023-02-24T09:24:39.600Z,6.70
2023-02-24T09:25:39.550Z,6.70
2023-02-24T09:26:39.536Z,6.90
2023-02-24T09:27:39.477Z,6.60
2023-02-24T09:28:39.529Z,7.30
2023-02-24T09:29:39.485Z,6.20
2023-02-24T09:30:39.684Z,6.50
2023-02-24T09:31:39.523Z,6.50
2023-02-24T09:32:39.539Z,7.00
2023-02-24T09:33:39.778Z,6.20
2023-02-24T09:34:39.407Z,6.50
2023-02-24T09:35:39.447Z,6.20
2023-02-24T09:36:41.198Z,6.30
2023-02-24T09:37:39.367Z,6.20
2023-02-24T09:38:39.366Z,6.00
2023-02-24T09:39:39.346Z,5.90
2023-02-24T09:40:39.463Z,6.10
2023-02-24T09:41:39.332Z,5.40
2023-02-24T09:42:39.341Z,5.70
2023-02-24T09:43:39.358Z,5.30
2023-02-24T09:44:39.303Z,5.30
2023-02-24T09:45:39.412Z,5.80
2023-02-24T09:46:39.362Z,5.30
2023-02-24T09:47:39.258Z,6.10
2023-02-24T09:48:39.255Z,5.80
2023-02-24T09:49:39.261Z,5.10
2023-02-24T09:51:01.532Z,5.50
2023-02-24T09:51:40.216Z,5.60
2023-02-24T09:52:39.189Z,4.30
2023-02-24T09:53:41.443Z,5.30
2023-02-24T09:54:39.250Z,5.30
2023-02-24T09:55:39.152Z,4.80
2023-02-24T09:56:39.161Z,4.90
2023-02-24T09:57:39.161Z,4.70
2023-02-24T09:58:44.005Z,5.50
2023-02-24T09:59:40.141Z,5.30
2023-02-24T10:00:39.215Z,5.20
2023-02-24T10:01:39.129Z,5.20
2023-02-24T10:02:39.144Z,4.80
2023-02-24T10:03:39.062Z,5.10
2023-02-24T10:04:39.062Z,5.70
2023-02-24T10:05:39.110Z,5.70
2023-02-24T10:06:39.050Z,6.00
2023-02-24T10:07:39.012Z,5.50
2023-02-24T10:08:39.004Z,5.60
2023-02-24T10:09:39.016Z,5.90
2023-02-24T10:10:39.002Z,5.10
2023-02-24T10:11:38.972Z,5.00
2023-02-24T10:12:38.955Z,4.90
2023-02-24T10:13:38.965Z,5.20
2023-02-24T10:14:43.852Z,5.60
2023-02-24T10:15:39.997Z,5.50
2023-02-24T10:16:38.991Z,5.60
2023-02-24T10:17:38.914Z,6.10
2023-02-24T10:18:38.899Z,5.60
2023-02-24T10:19:38.876Z,5.60
2023-02-24T10:20:38.963Z,5.30
2023-02-24T10:21:38.880Z,5.30
2023-02-24T10:22:38.841Z,5.60
2023-02-24T10:23:38.865Z,5.40
2023-02-24T10:24:38.833Z,5.00
2023-02-24T10:25:38.906Z,5.90
2023-02-24T10:26:40.270Z,5.40
2023-02-24T10:27:38.808Z,5.40
2023-02-24T10:28:38.788Z,5.10
2023-02-24T10:29:38.785Z,5.60
2023-02-24T10:30:38.979Z,5.10
2023-02-24T10:31:38.940Z,6.10
2023-02-24T10:32:38.784Z,5.70
2023-02-24T10:33:38.725Z,5.80
2023-02-24T10:34:38.698Z,5.70
2023-02-24T10:35:38.715Z,6.10
2023-02-24T10:36:38.703Z,5.90
2023-02-24T10:37:38.668Z,5.80
2023-02-24T10:38:38.688Z,5.40
2023-02-24T10:39:38.674Z,5.60
2023-02-24T10:40:38.639Z,6.20
2023-02-24T10:41:38.663Z,6.00
2023-02-24T10:42:38.615Z,5.90
2023-02-24T10:43:38.723Z,6.10
2023-02-24T10:44:38.632Z,5.80
2023-02-24T10:45:38.594Z,6.30
2023-02-24T10:46:42.122Z,5.10
2023-02-24T10:47:38.570Z,5.70
2023-02-24T10:48:41.762Z,5.40
2023-02-24T10:49:38.530Z,5.50
2023-02-24T10:50:41.416Z,6.50
2023-02-24T10:51:39.510Z,6.10
2023-02-24T10:52:38.521Z,5.80
2023-02-24T10:53:39.259Z,5.80
2023-02-24T10:54:38.506Z,6.20
2023-02-24T10:55:38.461Z,5.90
2023-02-24T10:56:38.467Z,5.70
2023-02-24T10:57:47.494Z,6.20
2023-02-24T10:58:39.508Z,6.80
2023-02-24T10:59:38.501Z,6.20
2023-02-24T11:00:38.413Z,6.10
2023-02-24T11:01:38.474Z,6.30
2023-02-24T11:02:38.466Z,5.80
2023-02-24T11:03:38.360Z,6.00
2023-02-24T11:04:38.384Z,5.90
2023-02-24T11:05:38.738Z,6.10
2023-02-24T11:06:38.349Z,5.50
2023-02-24T11:07:38.341Z,5.60
2023-02-24T11:08:38.318Z,5.50
2023-02-24T11:09:38.296Z,5.70
2023-02-24T11:10:38.308Z,5.60
2023-02-24T11:11:38.286Z,5.70
2023-02-24T11:12:38.322Z,5.50
2023-02-24T11:13:38.280Z,6.50
2023-02-24T11:14:38.260Z,5.90
2023-02-24T11:15:38.268Z,5.90
2023-02-24T11:16:38.276Z,6.00
2023-02-24T11:17:38.277Z,5.70
2023-02-24T11:18:38.250Z,5.80
2023-02-24T11:19:38.188Z,5.60
2023-02-24T11:20:48.642Z,5.30
2023-02-24T11:21:39.174Z,6.30
2023-02-24T11:22:38.143Z,6.10
2023-02-24T11:23:38.169Z,5.90
2023-02-24T11:24:38.152Z,6.00
2023-02-24T11:25:38.112Z,5.60
2023-02-24T11:26:38.116Z,6.40
2023-02-24T11:27:38.092Z,5.70
2023-02-24T11:28:38.088Z,6.50
2023-02-24T11:29:38.092Z,5.40
2023-02-24T11:30:38.195Z,4.90
2023-02-24T11:31:38.228Z,6.20
2023-02-24T11:32:38.233Z,6.30
2023-02-24T11:33:38.027Z,6.60
2023-02-24T11:34:38.032Z,6.60
2023-02-24T11:35:38.040Z,6.90
2023-02-24T11:36:38.025Z,6.90
2023-02-24T11:37:38.016Z,6.20
2023-02-24T11:38:37.978Z,6.80
2023-02-24T11:39:37.983Z,6.70
2023-02-24T11:40:37.954Z,7.40
2023-02-24T11:41:37.964Z,6.60
2023-02-24T11:42:37.944Z,6.00
2023-02-24T11:43:37.930Z,6.80
2023-02-24T11:44:37.886Z,6.00
2023-02-24T11:45:37.886Z,6.90
2023-02-24T11:46:37.962Z,6.60
2023-02-24T11:47:37.869Z,6.80
2023-02-24T11:48:37.881Z,6.00
2023-02-24T11:49:37.841Z,6.80
2023-02-24T11:50:37.841Z,5.90
2023-02-24T11:51:37.850Z,6.20
2023-02-24T11:52:37.803Z,6.50
2023-02-24T11:53:37.814Z,6.60
2023-02-24T11:54:37.790Z,6.90
2023-02-24T11:55:37.931Z,5.70
2023-02-24T11:56:37.782Z,6.80
2023-02-24T11:57:37.762Z,6.90
2023-02-24T11:58:37.765Z,5.80
2023-02-24T11:59:37.739Z,6.30
2023-02-24T12:00:37.754Z,6.80
2023-02-24T12:01:37.721Z,6.20
2023-02-24T12:02:37.718Z,6.80
2023-02-24T12:03:37.697Z,6.60
2023-02-24T12:04:37.662Z,7.30
2023-02-24T12:05:37.830Z,5.80
2023-02-24T12:06:37.658Z,6.20
2023-02-24T12:07:37.631Z,5.90
2023-02-24T12:08:37.645Z,6.30
2023-02-24T12:09:37.601Z,6.20
2023-02-24T12:10:37.653Z,5.90
2023-02-24T12:11:37.585Z,5.90
2023-02-24T12:12:37.583Z,5.20
2023-02-24T12:13:37.556Z,4.90
2023-02-24T12:14:37.541Z,5.30
2023-02-24T12:15:37.574Z,5.60
2023-02-24T12:16:37.597Z,6.10
2023-02-24T12:17:37.525Z,6.10
2023-02-24T12:18:37.539Z,6.00
2023-02-24T12:19:37.502Z,5.10
2023-02-24T12:20:37.509Z,5.80
2023-02-24T12:21:37.496Z,5.40
2023-02-24T12:22:37.453Z,5.30
2023-02-24T12:23:37.476Z,5.60
2023-02-24T12:24:37.428Z,5.30
2023-02-24T12:25:37.418Z,4.90
2023-02-24T12:26:37.403Z,5.40
2023-02-24T12:27:37.418Z,4.50
2023-02-24T12:28:37.386Z,5.20
2023-02-24T12:29:37.372Z,4.40
2023-02-24T12:30:39.087Z,4.60
2023-02-24T12:31:37.453Z,4.70
2023-02-24T12:32:37.760Z,4.70
2023-02-24T12:33:37.349Z,4.80
2023-02-24T12:34:37.336Z,4.20
2023-02-24T12:35:37.304Z,4.20
2023-02-24T12:36:37.293Z,4.50
2023-02-24T12:37:37.296Z,4.90
2023-02-24T12:38:37.285Z,4.10
2023-02-24T12:39:37.256Z,4.70
2023-02-24T12:40:37.244Z,4.50
2023-02-24T12:41:37.509Z,4.10
2023-02-24T12:42:37.213Z,3.90
2023-02-24T12:43:37.208Z,4.20
2023-02-24T12:44:37.214Z,4.80
2023-02-24T12:45:37.253Z,4.40
2023-02-24T12:46:37.183Z,4.20
2023-02-24T12:47:37.184Z,4.00
2023-02-24T12:48:37.184Z,4.20
2023-02-24T12:49:37.204Z,3.70
2023-02-24T12:50:37.153Z,3.60
2023-02-24T12:51:37.142Z,3.90
2023-02-24T12:52:37.103Z,3.70
2023-02-24T12:53:37.082Z,3.80
2023-02-24T12:54:37.094Z,3.60
2023-02-24T12:55:37.064Z,3.50
2023-02-24T12:56:37.088Z,3.50
2023-02-24T12:57:37.060Z,3.60
2023-02-24T12:58:37.098Z,3.80
2023-02-24T12:59:37.055Z,3.40
2023-02-24T13:00:37.019Z,3.80
2023-02-24T13:01:37.061Z,3.80
2023-02-24T13:02:37.086Z,3.50
2023-02-24T13:03:37.002Z,4.10
2023-02-24T13:04:37.001Z,3.10
2023-02-24T13:05:36.958Z,3.10
2023-02-24T13:06:36.934Z,3.50
2023-02-24T13:07:36.942Z,3.70
2023-02-24T13:08:36.937Z,3.70
2023-02-24T13:09:37.035Z,3.90
2023-02-24T13:10:36.891Z,3.30
2023-02-24T13:11:36.941Z,3.40